createdAt,value
2023-05-25T00:00:41.770Z,40.70
2023-05-25T00:01:37.423Z,40.66
2023-05-25T00:02:36.501Z,40.69
2023-05-25T00:03:36.509Z,40.68
2023-05-25T00:04:36.559Z,40.66
2023-05-25T00:05:36.390Z,40.68
2023-05-25T00:06:36.404Z,40.68
2023-05-25T00:07:36.360Z,40.65
2023-05-25T00:08:36.378Z,40.66
2023-05-25T00:09:36.341Z,40.65
2023-05-25T00:10:36.324Z,40.65
2023-05-25T00:11:36.391Z,40.64
2023-05-25T00:12:36.342Z,40.63
2023-05-25T00:13:36.314Z,40.66
2023-05-25T00:14:36.316Z,40.66
2023-05-25T00:15:36.317Z,40.66
2023-05-25T00:16:36.326Z,40.66
2023-05-25T00:17:36.353Z,40.70
2023-05-25T00:18:36.319Z,40.65
2023-05-25T00:19:36.348Z,40.69
2023-05-25T00:20:36.423Z,40.67
2023-05-25T00:21:36.407Z,40.70
2023-05-25T00:22:36.455Z,40.72
2023-05-25T00:23:36.481Z,40.71
2023-05-25T00:24:36.470Z,40.71
2023-05-25T00:25:36.488Z,40.69
2023-05-25T00:26:36.499Z,40.69
2023-05-25T00:27:36.518Z,40.69
2023-05-25T00:28:36.601Z,40.68
2023-05-25T00:29:36.622Z,40.72
2023-05-25T00:30:36.714Z,40.74
2023-05-25T00:31:36.725Z,40.72
2023-05-25T00:32:36.678Z,40.69
2023-05-25T00:33:36.703Z,40.66
2023-05-25T00:34:36.688Z,40.68
2023-05-25T00:35:36.731Z,40.66
2023-05-25T00:36:36.756Z,40.67
2023-05-25T00:37:36.748Z,40.67
2023-05-25T00:38:36.829Z,40.64
2023-05-25T00:39:36.808Z,40.67
2023-05-25T00:40:36.837Z,40.66
2023-05-25T00:41:36.843Z,40.66
2023-05-25T00:42:36.896Z,40.64
2023-05-25T00:43:36.944Z,40.66
2023-05-25T00:44:36.938Z,40.67
2023-05-25T00:45:36.977Z,40.65
2023-05-25T00:46:37.076Z,40.70
2023-05-25T00:47:37.019Z,40.63
2023-05-25T00:48:37.064Z,40.63
2023-05-25T00:49:37.070Z,40.69
2023-05-25T00:50:37.079Z,40.65
2023-05-25T00:51:37.116Z,40.67
2023-05-25T00:52:37.154Z,40.66
2023-05-25T00:53:37.185Z,40.62
2023-05-25T00:54:37.205Z,40.67
2023-05-25T00:55:37.209Z,40.65
2023-05-25T00:56:37.221Z,40.67
2023-05-25T00:57:37.268Z,40.64
2023-05-25T00:58:37.355Z,40.65
2023-05-25T00:59:37.336Z,40.67
2023-05-25T01:00:37.359Z,40.67
2023-05-25T01:01:37.443Z,40.64
2023-05-25T01:02:37.463Z,40.65
2023-05-25T01:03:37.549Z,40.65
2023-05-25T01:04:37.473Z,40.63
2023-05-25T01:05:37.485Z,40.64
2023-05-25T01:06:37.558Z,40.69
2023-05-25T01:07:37.537Z,40.63
2023-05-25T01:08:37.551Z,40.62
2023-05-25T01:09:37.593Z,40.64
2023-05-25T01:10:37.605Z,40.67
2023-05-25T01:11:37.633Z,40.67
2023-05-25T01:12:37.665Z,40.61
2023-05-25T01:13:37.682Z,40.63
2023-05-25T01:14:37.686Z,40.65
2023-05-25T01:15:37.731Z,40.68
2023-05-25T01:16:37.855Z,40.68
2023-05-25T01:17:37.839Z,40.71
2023-05-25T01:18:37.868Z,40.66
2023-05-25T01:19:37.890Z,40.68
2023-05-25T01:20:37.995Z,40.65
2023-05-25T01:21:38.023Z,40.65
2023-05-25T01:22:37.959Z,40.64
2023-05-25T01:23:38.015Z,40.68
2023-05-25T01:24:38.010Z,40.63
2023-05-25T01:25:38.068Z,40.64
2023-05-25T01:26:38.074Z,40.64
2023-05-25T01:27:38.077Z,40.64
2023-05-25T01:28:38.097Z,40.66
2023-05-25T01:29:38.142Z,40.68
2023-05-25T01:30:38.149Z,40.63
2023-05-25T01:31:38.236Z,40.67
2023-05-25T01:32:38.243Z,40.64
2023-05-25T01:33:38.218Z,40.64
2023-05-25T01:34:38.262Z,40.66
2023-05-25T01:35:38.290Z,40.63
2023-05-25T01:36:38.326Z,40.66
2023-05-25T01:37:38.376Z,40.61
2023-05-25T01:38:38.354Z,40.62
2023-05-25T01:39:38.369Z,40.68
2023-05-25T01:40:38.431Z,40.65
2023-05-25T01:41:38.461Z,40.65
2023-05-25T01:42:38.454Z,40.65
2023-05-25T01:43:38.515Z,40.70
2023-05-25T01:44:38.546Z,40.64
2023-05-25T01:45:38.645Z,40.68
2023-05-25T01:46:38.627Z,40.68
2023-05-25T01:47:38.688Z,40.69
2023-05-25T01:48:38.622Z,40.70
2023-05-25T01:49:38.698Z,40.72
2023-05-25T01:50:38.696Z,40.71
2023-05-25T01:51:38.715Z,40.67
2023-05-25T01:52:38.720Z,40.65
2023-05-25T01:53:38.778Z,40.65
2023-05-25T01:54:38.830Z,40.65
2023-05-25T01:55:38.829Z,40.64
2023-05-25T01:56:38.866Z,40.65
2023-05-25T01:57:38.901Z,40.68
2023-05-25T01:58:38.935Z,40.68
2023-05-25T01:59:38.983Z,40.64
2023-05-25T02:00:38.982Z,40.65
2023-05-25T02:01:39.007Z,40.63
2023-05-25T02:02:39.064Z,40.69
2023-05-25T02:03:39.064Z,40.67
2023-05-25T02:04:39.165Z,40.66
2023-05-25T02:05:39.137Z,40.65
2023-05-25T02:06:39.171Z,40.66
2023-05-25T02:07:39.179Z,40.67
2023-05-25T02:08:39.214Z,40.67
2023-05-25T02:09:39.231Z,40.67
2023-05-25T02:10:39.295Z,40.70
2023-05-25T02:11:39.289Z,40.68
2023-05-25T02:12:39.312Z,40.70
2023-05-25T02:13:39.385Z,40.63
2023-05-25T02:14:39.401Z,40.69
2023-05-25T02:15:39.462Z,40.66
2023-05-25T02:16:39.442Z,40.62
2023-05-25T02:17:39.564Z,40.64
2023-05-25T02:18:39.515Z,40.69
2023-05-25T02:19:39.553Z,40.61
2023-05-25T02:20:39.712Z,40.63
2023-05-25T02:21:39.627Z,40.58
2023-05-25T02:22:39.652Z,40.62
2023-05-25T02:23:39.665Z,40.68
2023-05-25T02:24:39.714Z,40.64
2023-05-25T02:25:39.721Z,40.68
2023-05-25T02:26:39.773Z,40.67
2023-05-25T02:27:39.797Z,40.67
2023-05-25T02:28:39.835Z,40.66
2023-05-25T02:29:39.806Z,40.68
2023-05-25T02:30:39.892Z,40.65
2023-05-25T02:31:40.018Z,40.66
2023-05-25T02:32:40.050Z,40.70
2023-05-25T02:33:39.977Z,40.68
2023-05-25T02:34:40.028Z,40.68
2023-05-25T02:35:40.031Z,40.66
2023-05-25T02:36:40.045Z,40.63
2023-05-25T02:37:40.118Z,40.71
2023-05-25T02:38:40.118Z,40.69
2023-05-25T02:39:40.214Z,40.66
2023-05-25T02:40:40.166Z,40.68
2023-05-25T02:41:40.227Z,40.66
2023-05-25T02:42:40.243Z,40.66
2023-05-25T02:43:40.236Z,40.72
2023-05-25T02:44:40.298Z,40.69
2023-05-25T02:45:40.326Z,40.67
2023-05-25T02:46:40.407Z,40.70
2023-05-25T02:47:40.434Z,40.65
2023-05-25T02:48:40.437Z,40.60
2023-05-25T02:49:40.491Z,40.65
2023-05-25T02:50:40.516Z,40.64
2023-05-25T02:51:40.571Z,40.70
2023-05-25T02:52:40.551Z,40.68
2023-05-25T02:53:40.615Z,40.66
2023-05-25T02:54:40.619Z,40.67
2023-05-25T02:55:40.770Z,40.65
2023-05-25T02:56:40.688Z,40.66
2023-05-25T02:57:40.728Z,40.67
2023-05-25T02:58:40.769Z,40.65
2023-05-25T02:59:40.779Z,40.66
2023-05-25T03:00:40.848Z,40.61
2023-05-25T03:01:40.905Z,40.66
2023-05-25T03:02:40.898Z,40.68
2023-05-25T03:03:40.984Z,40.72
2023-05-25T03:04:40.917Z,40.71
2023-05-25T03:05:41.035Z,40.69
2023-05-25T03:06:40.993Z,40.68
2023-05-25T03:07:41.064Z,40.66
2023-05-25T03:08:41.048Z,40.68
2023-05-25T03:09:41.074Z,40.67
2023-05-25T03:10:41.103Z,40.64
2023-05-25T03:11:41.205Z,40.65
2023-05-25T03:12:41.201Z,40.66
2023-05-25T03:13:41.251Z,40.68
2023-05-25T03:14:41.261Z,40.71
2023-05-25T03:15:41.406Z,40.68
2023-05-25T03:16:41.336Z,40.67
2023-05-25T03:17:41.422Z,40.67
2023-05-25T03:18:41.396Z,40.64
2023-05-25T03:19:41.458Z,40.66
2023-05-25T03:20:41.506Z,40.69
2023-05-25T03:21:41.501Z,40.65
2023-05-25T03:22:41.569Z,40.64
2023-05-25T03:23:41.564Z,40.65
2023-05-25T03:24:41.837Z,40.68
2023-05-25T03:25:41.715Z,40.70
2023-05-25T03:26:41.698Z,40.66
2023-05-25T03:27:41.695Z,40.69
2023-05-25T03:28:41.725Z,40.66
2023-05-25T03:29:41.756Z,40.65
2023-05-25T03:30:41.779Z,40.65
2023-05-25T03:31:41.885Z,40.65
2023-05-25T03:32:41.877Z,40.65
2023-05-25T03:33:41.855Z,40.61
2023-05-25T03:34:41.909Z,40.64
2023-05-25T03:35:42.051Z,40.63
2023-05-25T03:36:41.987Z,40.60
2023-05-25T03:37:42.037Z,40.64
2023-05-25T03:38:42.054Z,40.66
2023-05-25T03:39:42.081Z,40.65
2023-05-25T03:40:42.126Z,40.64
2023-05-25T03:41:42.182Z,40.64
2023-05-25T03:42:42.185Z,40.68
2023-05-25T03:43:42.216Z,40.66
2023-05-25T03:44:42.264Z,40.62
2023-05-25T03:45:42.381Z,40.64
2023-05-25T03:46:42.352Z,40.62
2023-05-25T03:47:42.438Z,40.66
2023-05-25T03:48:42.490Z,40.65
2023-05-25T03:49:42.446Z,40.62
2023-05-25T03:50:42.489Z,40.60
2023-05-25T03:51:42.492Z,40.55
2023-05-25T03:52:42.548Z,40.63
2023-05-25T03:53:42.700Z,40.58
2023-05-25T03:54:42.695Z,40.63
2023-05-25T03:55:42.718Z,40.57
2023-05-25T03:56:42.693Z,40.61
2023-05-25T03:57:42.722Z,40.57
2023-05-25T03:58:42.724Z,40.61
2023-05-25T03:59:42.820Z,40.58
2023-05-25T04:00:42.820Z,40.63
2023-05-25T04:01:42.847Z,40.61
2023-05-25T04:02:42.949Z,40.62
2023-05-25T04:03:43.081Z,40.59
2023-05-25T04:04:43.004Z,40.52
2023-05-25T04:05:43.287Z,40.50
2023-05-25T04:06:43.028Z,40.39
2023-05-25T04:07:43.061Z,40.34
2023-05-25T04:08:43.105Z,40.27
2023-05-25T04:09:43.163Z,40.25
2023-05-25T04:10:43.181Z,40.21
2023-05-25T04:11:43.221Z,40.16
2023-05-25T04:12:43.274Z,40.19
2023-05-25T04:13:43.339Z,40.14
2023-05-25T04:14:43.400Z,40.11
2023-05-25T04:15:43.647Z,40.06
2023-05-25T04:16:43.607Z,40.02
2023-05-25T04:17:43.580Z,39.96
2023-05-25T04:18:43.641Z,39.87
2023-05-25T04:19:43.649Z,39.86
2023-05-25T04:20:43.787Z,39.82
2023-05-25T04:21:43.760Z,39.82
2023-05-25T04:22:43.826Z,39.79
2023-05-25T04:23:43.897Z,39.76
2023-05-25T04:24:43.957Z,39.77
2023-05-25T04:25:44.221Z,39.75
2023-05-25T04:26:44.057Z,39.75
2023-05-25T04:27:44.123Z,39.80
2023-05-25T04:28:44.203Z,39.73
2023-05-25T04:29:44.302Z,39.77
2023-05-25T04:30:44.333Z,39.75
2023-05-25T04:31:44.425Z,39.79
2023-05-25T04:32:45.449Z,39.76
2023-05-25T04:33:44.480Z,39.79
2023-05-25T04:34:44.555Z,39.75
2023-05-25T04:35:44.784Z,39.79
2023-05-25T04:36:44.668Z,39.78
2023-05-25T04:37:44.743Z,39.76
2023-05-25T04:38:44.764Z,39.78
2023-05-25T04:39:44.856Z,39.77
2023-05-25T04:40:44.878Z,39.75
2023-05-25T04:41:44.947Z,39.76
2023-05-25T04:42:45.074Z,39.75
2023-05-25T04:44:03.540Z,39.72
2023-05-25T04:44:46.064Z,39.71
2023-05-25T04:45:45.258Z,39.72
2023-05-25T04:46:45.064Z,39.70
2023-05-25T04:47:45.052Z,39.68
2023-05-25T04:48:45.016Z,39.67
2023-05-25T04:49:45.035Z,39.68
2023-05-25T04:50:44.981Z,39.66
2023-05-25T04:51:44.995Z,39.65
2023-05-25T04:52:44.967Z,39.69
2023-05-25T04:53:44.964Z,39.66
2023-05-25T04:54:45.023Z,39.64
2023-05-25T04:55:45.384Z,39.71
2023-05-25T04:56:45.071Z,39.72
2023-05-25T04:57:45.117Z,39.70
2023-05-25T04:58:45.146Z,39.67
2023-05-25T04:59:45.163Z,39.65
2023-05-25T05:00:45.592Z,39.63
2023-05-25T05:01:45.398Z,39.61
2023-05-25T05:02:45.324Z,39.61
2023-05-25T05:03:45.308Z,39.57
2023-05-25T05:04:45.330Z,39.60
2023-05-25T05:05:45.606Z,39.57
2023-05-25T05:06:45.363Z,39.57
2023-05-25T05:07:45.420Z,39.56
2023-05-25T05:08:45.409Z,39.53
2023-05-25T05:09:45.429Z,39.51
2023-05-25T05:10:45.740Z,39.50
2023-05-25T05:11:45.475Z,39.52
2023-05-25T05:12:45.510Z,39.49
2023-05-25T05:13:45.523Z,39.49
2023-05-25T05:14:45.565Z,39.51
2023-05-25T05:15:45.763Z,39.53
2023-05-25T05:16:45.598Z,39.50
2023-05-25T05:17:45.684Z,39.50
2023-05-25T05:18:45.633Z,39.52
2023-05-25T05:19:45.635Z,39.52
2023-05-25T05:20:45.814Z,39.49
2023-05-25T05:21:45.687Z,39.49
2023-05-25T05:22:45.675Z,39.47
2023-05-25T05:23:45.681Z,39.47
2023-05-25T05:24:45.733Z,39.44
2023-05-25T05:25:45.938Z,39.44
2023-05-25T05:26:57.203Z,39.48
2023-05-25T05:27:46.782Z,39.46
2023-05-25T05:28:45.772Z,39.41
2023-05-25T05:29:45.723Z,39.38
2023-05-25T05:30:45.728Z,39.42
2023-05-25T05:31:45.881Z,39.37
2023-05-25T05:32:46.846Z,39.45
2023-05-25T05:33:45.742Z,39.46
2023-05-25T05:34:45.702Z,39.54
2023-05-25T05:35:45.946Z,39.51
2023-05-25T05:36:57.386Z,39.59
2023-05-25T05:37:46.644Z,39.67
2023-05-25T05:38:45.670Z,39.82
2023-05-25T05:39:45.652Z,39.99
2023-05-25T05:40:45.637Z,40.00
2023-05-25T05:41:45.653Z,40.09
2023-05-25T05:42:45.611Z,40.27
2023-05-25T05:43:45.659Z,40.48
2023-05-25T05:44:45.635Z,40.46
2023-05-25T05:45:45.862Z,40.56
2023-05-25T05:46:45.629Z,40.54
2023-05-25T05:47:45.619Z,40.69
2023-05-25T05:48:45.558Z,40.73
2023-05-25T05:49:45.611Z,40.88
2023-05-25T05:50:45.565Z,40.92
2023-05-25T05:51:45.583Z,41.05
2023-05-25T05:52:45.534Z,41.08
2023-05-25T05:53:45.536Z,41.20
2023-05-25T05:54:45.529Z,41.28
2023-05-25T05:55:46.955Z,41.30
2023-05-25T05:56:45.517Z,41.31
2023-05-25T05:57:45.515Z,41.23
2023-05-25T05:58:45.493Z,41.19
2023-05-25T05:59:45.505Z,41.26
2023-05-25T06:00:45.501Z,41.24
2023-05-25T06:01:45.562Z,41.18
2023-05-25T06:02:45.563Z,41.18
2023-05-25T06:03:45.477Z,41.03
2023-05-25T06:04:45.461Z,41.05
2023-05-25T06:05:45.734Z,41.28
2023-05-25T06:06:45.449Z,41.29
2023-05-25T06:07:45.446Z,41.23
2023-05-25T06:08:45.466Z,41.18
2023-05-25T06:09:45.427Z,41.16
2023-05-25T06:10:45.427Z,41.11
2023-05-25T06:11:45.409Z,41.05
2023-05-25T06:12:45.449Z,41.05
2023-05-25T06:13:46.583Z,41.04
2023-05-25T06:14:45.424Z,40.93
2023-05-25T06:15:45.661Z,40.95
2023-05-25T06:16:45.399Z,41.02
2023-05-25T06:17:45.395Z,40.96
2023-05-25T06:18:45.388Z,40.89
2023-05-25T06:19:45.368Z,40.86
2023-05-25T06:20:45.445Z,40.87
2023-05-25T06:21:45.347Z,40.88
2023-05-25T06:22:45.358Z,40.83
2023-05-25T06:23:45.338Z,40.80
2023-05-25T06:24:45.317Z,40.83
2023-05-25T06:25:45.452Z,40.96
2023-05-25T06:26:45.313Z,40.76
2023-05-25T06:27:45.267Z,40.68
2023-05-25T06:28:45.308Z,40.70
2023-05-25T06:29:45.280Z,40.75
2023-05-25T06:30:45.298Z,40.69
2023-05-25T06:31:45.325Z,40.67
2023-05-25T06:32:45.272Z,40.65
2023-05-25T06:33:45.281Z,40.58
2023-05-25T06:34:45.246Z,40.63
2023-05-25T06:35:47.058Z,40.64
2023-05-25T06:36:45.233Z,40.59
2023-05-25T06:37:45.197Z,40.51
2023-05-25T06:38:45.224Z,38.58
2023-05-25T06:39:45.268Z,38.51
2023-05-25T06:40:45.251Z,38.61
2023-05-25T06:41:45.297Z,38.93
2023-05-25T06:42:45.289Z,38.83
2023-05-25T06:43:45.250Z,38.94
2023-05-25T06:44:45.297Z,39.29
2023-05-25T06:45:45.638Z,38.92
2023-05-25T06:46:45.433Z,39.29
2023-05-25T06:47:45.444Z,39.41
2023-05-25T06:48:45.430Z,39.67
2023-05-25T06:49:45.430Z,39.72
2023-05-25T06:50:45.464Z,39.70
2023-05-25T06:51:45.481Z,39.74
2023-05-25T06:52:45.487Z,39.84
2023-05-25T06:53:45.479Z,39.85
2023-05-25T06:54:45.505Z,39.81
2023-05-25T06:55:45.721Z,39.86
2023-05-25T06:56:45.471Z,39.92
2023-05-25T06:57:45.468Z,39.84
2023-05-25T06:58:45.460Z,39.83
2023-05-25T06:59:45.484Z,39.86
2023-05-25T07:00:46.763Z,39.93
2023-05-25T07:01:45.668Z,39.87
2023-05-25T07:02:45.654Z,39.84
2023-05-25T07:03:45.654Z,39.86
2023-05-25T07:04:45.792Z,39.91
2023-05-25T07:05:46.023Z,39.87
2023-05-25T07:06:45.864Z,39.82
2023-05-25T07:07:45.886Z,39.77
2023-05-25T07:08:45.944Z,39.80
2023-05-25T07:09:46.010Z,39.64
2023-05-25T07:10:47.975Z,39.73
2023-05-25T07:11:46.025Z,39.62
2023-05-25T07:12:46.047Z,39.67
2023-05-25T07:13:46.050Z,39.64
2023-05-25T07:14:46.021Z,39.67
2023-05-25T07:15:46.925Z,39.63
2023-05-25T07:16:45.978Z,39.65
2023-05-25T07:17:46.012Z,39.55
2023-05-25T07:18:45.974Z,39.53
2023-05-25T07:19:46.053Z,39.51
2023-05-25T07:20:46.039Z,39.51
2023-05-25T07:21:45.940Z,39.46
2023-05-25T07:22:45.969Z,39.45
2023-05-25T07:23:45.938Z,39.47
2023-05-25T07:24:45.950Z,39.47
2023-05-25T07:25:46.285Z,39.51
2023-05-25T07:26:45.955Z,39.48
2023-05-25T07:27:45.948Z,39.45
2023-05-25T07:28:45.951Z,39.46
2023-05-25T07:29:45.943Z,39.50
2023-05-25T07:30:45.951Z,39.52
2023-05-25T07:31:46.035Z,39.39
2023-05-25T07:32:45.917Z,39.29
2023-05-25T07:33:45.916Z,38.66
2023-05-25T07:34:45.883Z,37.84
2023-05-25T07:35:46.154Z,36.86
2023-05-25T07:36:45.882Z,37.07
2023-05-25T07:37:46.316Z,37.18
2023-05-25T07:38:45.824Z,37.39
2023-05-25T07:39:45.858Z,37.73
2023-05-25T07:40:45.832Z,38.03
2023-05-25T07:41:45.859Z,38.34
2023-05-25T07:42:45.862Z,38.41
2023-05-25T07:43:45.802Z,38.45
2023-05-25T07:44:45.817Z,38.37
2023-05-25T07:45:46.003Z,38.31
2023-05-25T07:46:45.874Z,38.31
2023-05-25T07:47:45.842Z,38.42
2023-05-25T07:48:45.806Z,38.43
2023-05-25T07:49:45.824Z,38.39
2023-05-25T07:50:45.798Z,38.43
2023-05-25T07:51:45.847Z,38.48
2023-05-25T07:52:45.798Z,38.54
2023-05-25T07:53:45.763Z,38.66
2023-05-25T07:54:45.772Z,38.58
2023-05-25T07:55:46.086Z,38.54
2023-05-25T07:56:45.852Z,38.60
2023-05-25T07:57:45.917Z,38.62
2023-05-25T07:58:45.911Z,38.64
2023-05-25T07:59:45.987Z,38.66
2023-05-25T08:00:46.007Z,38.62
2023-05-25T08:01:46.101Z,38.75
2023-05-25T08:02:46.225Z,38.70
2023-05-25T08:03:49.457Z,38.67
2023-05-25T08:04:46.187Z,38.70
2023-05-25T08:05:46.241Z,38.74
2023-05-25T08:06:46.068Z,38.72
2023-05-25T08:07:46.113Z,38.70
2023-05-25T08:08:46.086Z,38.65
2023-05-25T08:09:46.094Z,38.64
2023-05-25T08:10:46.072Z,38.65
2023-05-25T08:11:46.075Z,38.65
2023-05-25T08:12:48.847Z,38.69
2023-05-25T08:13:46.063Z,38.78
2023-05-25T08:14:46.059Z,38.74
2023-05-25T08:15:46.196Z,38.73
2023-05-25T08:16:46.075Z,38.77
2023-05-25T08:17:46.040Z,38.77
2023-05-25T08:18:46.047Z,38.83
2023-05-25T08:19:46.014Z,38.85
2023-05-25T08:20:46.110Z,38.89
2023-05-25T08:21:46.018Z,38.88
2023-05-25T08:22:45.983Z,38.90
2023-05-25T08:23:46.005Z,38.91
2023-05-25T08:24:45.970Z,38.93
2023-05-25T08:25:46.055Z,38.95
2023-05-25T08:27:46.922Z,39.05
2023-05-25T08:28:45.967Z,39.04
2023-05-25T08:29:45.940Z,39.00
2023-05-25T08:30:46.027Z,38.99
2023-05-25T08:31:45.964Z,38.88
2023-05-25T08:32:45.949Z,38.81
2023-05-25T08:33:45.906Z,38.77
2023-05-25T08:34:45.905Z,38.74
2023-05-25T08:35:46.094Z,38.76
2023-05-25T08:36:45.891Z,38.68
2023-05-25T08:37:45.917Z,38.70
2023-05-25T08:38:45.961Z,38.72
2023-05-25T08:39:45.884Z,38.72
2023-05-25T08:40:45.848Z,38.67
2023-05-25T08:41:45.902Z,38.62
2023-05-25T08:42:45.926Z,38.61
2023-05-25T08:43:46.007Z,38.51
2023-05-25T08:44:46.042Z,38.30
2023-05-25T08:45:47.328Z,37.95
2023-05-25T08:46:46.140Z,38.18
2023-05-25T08:47:46.263Z,38.13
2023-05-25T08:48:46.334Z,38.29
2023-05-25T08:49:46.420Z,38.40
2023-05-25T08:50:46.297Z,38.59
2023-05-25T08:51:46.350Z,38.65
2023-05-25T08:52:46.432Z,38.48
2023-05-25T08:53:46.463Z,38.60
2023-05-25T08:54:46.816Z,38.66
2023-05-25T08:55:46.711Z,38.69
2023-05-25T08:56:46.545Z,37.99
2023-05-25T08:57:46.615Z,38.36
2023-05-25T08:58:46.684Z,38.50
2023-05-25T08:59:46.752Z,38.63
2023-05-25T09:00:46.821Z,38.63
2023-05-25T09:01:46.807Z,38.65
2023-05-25T09:02:46.888Z,38.72
2023-05-25T09:03:46.968Z,38.32
2023-05-25T09:04:46.867Z,38.50
2023-05-25T09:05:47.006Z,38.58
2023-05-25T09:06:57.180Z,38.66
2023-05-25T09:07:48.297Z,38.80
2023-05-25T09:08:46.929Z,38.77
2023-05-25T09:09:46.911Z,38.69
2023-05-25T09:10:46.898Z,38.77
2023-05-25T09:11:46.889Z,38.77
2023-05-25T09:12:46.901Z,38.85
2023-05-25T09:13:46.893Z,38.77
2023-05-25T09:14:46.895Z,38.89
2023-05-25T09:15:46.878Z,38.81
2023-05-25T09:16:46.975Z,38.74
2023-05-25T09:17:46.868Z,38.71
2023-05-25T09:18:46.860Z,38.72
2023-05-25T09:19:46.836Z,38.58
2023-05-25T09:20:47.642Z,38.56
2023-05-25T09:21:46.836Z,38.54
2023-05-25T09:22:46.822Z,38.55
2023-05-25T09:23:46.849Z,38.55
2023-05-25T09:24:46.783Z,38.49
2023-05-25T09:25:46.787Z,38.49
2023-05-25T09:26:48.154Z,38.45
2023-05-25T09:27:46.796Z,38.42
2023-05-25T09:28:46.781Z,38.41
2023-05-25T09:29:46.797Z,38.36
2023-05-25T09:30:46.854Z,38.38
2023-05-25T09:31:46.760Z,38.38
2023-05-25T09:32:46.799Z,38.38
2023-05-25T09:33:46.741Z,38.32
2023-05-25T09:34:46.835Z,38.28
2023-05-25T09:35:46.750Z,38.13
2023-05-25T09:36:46.943Z,38.51
2023-05-25T09:37:46.859Z,38.40
2023-05-25T09:38:46.875Z,38.18
2023-05-25T09:39:46.744Z,38.32
2023-05-25T09:40:47.009Z,38.18
2023-05-25T09:41:46.812Z,37.51
2023-05-25T09:42:46.748Z,37.82
2023-05-25T09:43:54.686Z,37.80
2023-05-25T09:44:47.729Z,37.78
2023-05-25T09:45:46.771Z,37.77
2023-05-25T09:46:46.792Z,37.77
2023-05-25T09:47:46.793Z,37.74
2023-05-25T09:48:46.728Z,37.75
2023-05-25T09:49:46.680Z,37.64
2023-05-25T09:50:48.952Z,37.50
2023-05-25T09:51:46.678Z,37.54
2023-05-25T09:52:46.690Z,37.52
2023-05-25T09:53:46.700Z,37.43
2023-05-25T09:54:46.660Z,37.43
2023-05-25T09:55:53.938Z,37.44
2023-05-25T09:56:47.679Z,37.52
2023-05-25T09:57:46.680Z,37.56
2023-05-25T09:58:46.700Z,37.46
2023-05-25T09:59:46.662Z,37.49
2023-05-25T10:00:46.856Z,37.51
2023-05-25T10:01:46.667Z,37.48
2023-05-25T10:02:46.649Z,37.51
2023-05-25T10:03:59.745Z,37.40
2023-05-25T10:04:47.604Z,37.46
2023-05-25T10:05:46.583Z,37.46
2023-05-25T10:06:46.632Z,37.45
2023-05-25T10:07:46.615Z,37.48
2023-05-25T10:08:46.582Z,37.50
2023-05-25T10:09:46.561Z,37.47
2023-05-25T10:10:46.790Z,37.41
2023-05-25T10:11:46.533Z,37.40
2023-05-25T10:12:46.574Z,37.37
2023-05-25T10:13:46.603Z,37.36
2023-05-25T10:14:46.580Z,37.34
2023-05-25T10:15:46.547Z,37.27
2023-05-25T10:16:46.575Z,37.29
2023-05-25T10:17:46.604Z,37.17
2023-05-25T10:18:46.511Z,37.21
2023-05-25T10:19:46.504Z,37.23
2023-05-25T10:20:46.589Z,37.24
2023-05-25T10:21:46.499Z,37.03
2023-05-25T10:22:46.476Z,37.01
2023-05-25T10:23:46.504Z,36.94
2023-05-25T10:24:46.520Z,37.09
2023-05-25T10:25:46.477Z,37.09
2023-05-25T10:26:46.473Z,37.05
2023-05-25T10:27:46.482Z,36.88
2023-05-25T10:28:46.485Z,36.75
2023-05-25T10:29:46.480Z,36.83
2023-05-25T10:30:46.448Z,36.82
2023-05-25T10:31:46.480Z,36.85
2023-05-25T10:32:46.499Z,36.97
2023-05-25T10:33:49.277Z,36.95
2023-05-25T10:34:47.455Z,37.02
2023-05-25T10:36:01.391Z,36.87
2023-05-25T10:36:47.396Z,37.01
2023-05-25T10:37:46.427Z,36.94
2023-05-25T10:38:46.407Z,36.95
2023-05-25T10:39:46.395Z,36.89
2023-05-25T10:40:46.346Z,36.96
2023-05-25T10:41:46.372Z,37.00
2023-05-25T10:42:46.390Z,37.00
2023-05-25T10:43:46.390Z,36.98
2023-05-25T10:44:46.387Z,36.98
2023-05-25T10:45:46.612Z,36.97
2023-05-25T10:46:46.472Z,36.93
2023-05-25T10:47:46.623Z,36.94
2023-05-25T10:48:46.659Z,37.02
2023-05-25T10:49:46.717Z,37.03
2023-05-25T10:50:46.730Z,37.00
2023-05-25T10:51:46.758Z,36.89
2023-05-25T10:52:46.800Z,36.84
2023-05-25T10:53:46.859Z,36.88
2023-05-25T10:54:46.968Z,36.97
2023-05-25T10:55:47.224Z,36.85
2023-05-25T10:56:47.141Z,36.85
2023-05-25T10:57:47.115Z,36.84
2023-05-25T10:58:47.204Z,36.70
2023-05-25T10:59:47.254Z,36.67
2023-05-25T11:00:47.392Z,36.63
2023-05-25T11:01:47.428Z,36.75
2023-05-25T11:02:47.389Z,36.60
2023-05-25T11:03:47.540Z,36.74
2023-05-25T11:04:47.538Z,36.63
2023-05-25T11:05:47.638Z,36.74
2023-05-25T11:06:47.600Z,36.75
2023-05-25T11:07:47.660Z,36.76
2023-05-25T11:08:47.698Z,36.59
2023-05-25T11:09:47.740Z,36.65
2023-05-25T11:10:47.906Z,36.72
2023-05-25T11:11:47.913Z,36.69
2023-05-25T11:12:47.905Z,36.72
2023-05-25T11:13:47.943Z,36.77
2023-05-25T11:14:47.990Z,36.80
2023-05-25T11:15:48.069Z,36.80
2023-05-25T11:16:48.162Z,36.72
2023-05-25T11:17:48.304Z,36.87
2023-05-25T11:18:48.253Z,36.78
2023-05-25T11:19:50.371Z,36.90
2023-05-25T11:20:48.348Z,37.05
2023-05-25T11:21:48.398Z,37.11
2023-05-25T11:22:49.969Z,37.09
2023-05-25T11:23:48.341Z,37.20
2023-05-25T11:24:48.287Z,37.10
2023-05-25T11:25:48.300Z,37.02
2023-05-25T11:26:48.287Z,36.92
2023-05-25T11:27:48.256Z,36.94
2023-05-25T11:28:48.238Z,36.98
2023-05-25T11:29:48.264Z,37.12
2023-05-25T11:30:48.254Z,37.23
2023-05-25T11:31:48.290Z,37.34
2023-05-25T11:32:48.272Z,37.39
2023-05-25T11:33:48.262Z,37.46
2023-05-25T11:34:48.283Z,37.54
2023-05-25T11:35:48.225Z,37.54
2023-05-25T11:36:48.220Z,37.53
2023-05-25T11:37:48.226Z,37.55
2023-05-25T11:38:59.819Z,37.59
2023-05-25T11:39:49.221Z,37.65
2023-05-25T11:40:48.415Z,37.66
2023-05-25T11:41:48.203Z,37.72
2023-05-25T11:42:48.208Z,37.72
2023-05-25T11:43:48.180Z,37.72
2023-05-25T11:44:48.183Z,37.78
2023-05-25T11:45:48.177Z,37.80
2023-05-25T11:46:48.161Z,37.83
2023-05-25T11:47:48.206Z,37.91
2023-05-25T11:48:48.120Z,37.89
2023-05-25T11:49:48.161Z,37.90
2023-05-25T11:50:48.159Z,37.93
2023-05-25T11:51:48.120Z,37.96
2023-05-25T11:52:48.134Z,38.24
2023-05-25T11:53:48.082Z,38.17
2023-05-25T11:54:48.114Z,38.34
2023-05-25T11:55:48.096Z,38.24
2023-05-25T11:56:48.087Z,38.28
2023-05-25T11:57:48.247Z,38.20
2023-05-25T11:58:48.072Z,38.19
2023-05-25T11:59:48.062Z,38.11
2023-05-25T12:00:48.065Z,38.13
2023-05-25T12:01:48.079Z,38.12
2023-05-25T12:02:48.200Z,38.06
2023-05-25T12:03:48.140Z,38.02
2023-05-25T12:04:48.097Z,38.01
2023-05-25T12:05:48.068Z,38.13
2023-05-25T12:06:48.069Z,37.98
2023-05-25T12:07:48.130Z,38.00
2023-05-25T12:08:48.126Z,37.95
2023-05-25T12:09:48.121Z,37.95
2023-05-25T12:10:49.846Z,37.93
2023-05-25T12:11:48.232Z,37.84
2023-05-25T12:12:48.330Z,37.83
2023-05-25T12:13:48.367Z,37.84
2023-05-25T12:14:48.440Z,37.79
2023-05-25T12:15:48.549Z,37.69
2023-05-25T12:16:48.665Z,37.56
2023-05-25T12:17:48.638Z,37.62
2023-05-25T12:18:48.668Z,37.53
2023-05-25T12:19:48.726Z,37.53
2023-05-25T12:20:48.996Z,37.48
2023-05-25T12:21:48.833Z,37.55
2023-05-25T12:22:48.913Z,37.57
2023-05-25T12:23:48.913Z,37.48
2023-05-25T12:24:49.012Z,37.36
2023-05-25T12:25:51.165Z,37.24
2023-05-25T12:26:49.171Z,37.37
2023-05-25T12:27:49.166Z,37.37
2023-05-25T12:28:49.209Z,37.41
2023-05-25T12:29:49.295Z,37.46
2023-05-25T12:30:49.397Z,37.41
2023-05-25T12:31:49.437Z,37.39
2023-05-25T12:32:49.576Z,37.38
2023-05-25T12:33:49.532Z,37.30
2023-05-25T12:34:49.596Z,37.08
2023-05-25T12:35:49.638Z,36.89
2023-05-25T12:36:49.749Z,36.86
2023-05-25T12:37:49.731Z,36.83
2023-05-25T12:38:49.874Z,36.58
2023-05-25T12:39:49.873Z,36.26
2023-05-25T12:40:49.956Z,36.14
2023-05-25T12:41:51.820Z,35.95
2023-05-25T12:42:49.957Z,36.10
2023-05-25T12:43:49.990Z,35.87
2023-05-25T12:44:49.961Z,35.80
2023-05-25T12:45:49.927Z,35.85
2023-05-25T12:46:50.040Z,35.74
2023-05-25T12:47:49.988Z,35.65
2023-05-25T12:48:49.936Z,35.40
2023-05-25T12:49:49.980Z,35.17
2023-05-25T12:50:51.229Z,35.18
2023-05-25T12:51:49.911Z,35.08
2023-05-25T12:52:49.909Z,35.13
2023-05-25T12:53:49.883Z,35.16